createdAt,value
2022-08-24T00:00:08.841Z,55
2022-08-24T00:15:03.067Z,55
2022-08-24T00:30:05.192Z,55
2022-08-24T00:45:02.639Z,55
2022-08-24T01:00:07.753Z,55
2022-08-24T01:15:02.766Z,55
2022-08-24T01:30:04.923Z,55
2022-08-24T01:45:02.613Z,55
2022-08-24T02:00:07.034Z,55
2022-08-24T02:15:02.109Z,55
2022-08-24T02:30:05.578Z,56
2022-08-24T02:45:03.716Z,56
2022-08-24T03:00:11.061Z,55
2022-08-24T03:15:02.892Z,55
2022-08-24T03:30:05.758Z,55
2022-08-24T03:45:02.267Z,55
2022-08-24T04:00:07.348Z,55
2022-08-24T04:15:02.715Z,55
2022-08-24T04:30:06.110Z,55
2022-08-24T04:45:02.858Z,55
2022-08-24T05:00:05.910Z,55
2022-08-24T05:15:03.142Z,55
2022-08-24T05:30:08.252Z,55
2022-08-24T05:45:04.392Z,55
2022-08-24T06:00:09.165Z,56
2022-08-24T06:15:05.179Z,57
2022-08-24T06:30:08.150Z,57
2022-08-24T06:45:03.886Z,58
2022-08-24T07:00:10.260Z,58
2022-08-24T07:15:12.555Z,58
2022-08-24T07:30:27.755Z,59
2022-08-24T07:45:04.131Z,59
2022-08-24T08:00:05.675Z,58
2022-08-24T08:15:04.170Z,58
2022-08-24T08:30:09.241Z,58
2022-08-24T08:45:04.170Z,58
2022-08-24T09:00:08.898Z,57
2022-08-24T09:15:04.255Z,57
2022-08-24T09:30:06.508Z,57
2022-08-24T09:45:05.653Z,57
2022-08-24T10:00:09.204Z,57
2022-08-24T10:15:04.576Z,56
2022-08-24T10:30:05.364Z,56
2022-08-24T10:45:04.565Z,56
2022-08-24T11:00:07.563Z,56
2022-08-24T11:15:02.740Z,56
2022-08-24T11:30:07.011Z,56
2022-08-24T11:45:03.039Z,56
2022-08-24T12:00:10.094Z,56
2022-08-24T12:15:04.725Z,57
2022-08-24T12:30:07.052Z,57
2022-08-24T12:45:04.075Z,57
2022-08-24T13:00:10.710Z,57
2022-08-24T13:15:05.129Z,57
2022-08-24T13:30:08.774Z,57
2022-08-24T13:45:04.718Z,57
2022-08-24T14:00:08.363Z,57
2022-08-24T14:15:05.412Z,58
2022-08-24T14:30:06.333Z,58
2022-08-24T14:45:04.243Z,58
2022-08-24T15:00:07.175Z,58
2022-08-24T15:15:03.506Z,58
2022-08-24T15:30:09.920Z,58
2022-08-24T15:45:03.241Z,58
2022-08-24T16:00:07.446Z,58
2022-08-24T16:15:02.469Z,59
2022-08-24T16:30:09.817Z,59
2022-08-24T16:45:03.047Z,59
2022-08-24T17:00:06.993Z,59
2022-08-24T17:15:02.871Z,60
2022-08-24T17:30:07.022Z,60
2022-08-24T17:45:03.988Z,60
2022-08-24T18:00:08.564Z,60
2022-08-24T18:15:02.555Z,60
2022-08-24T18:30:08.536Z,61
2022-08-24T18:45:02.764Z,61
2022-08-24T19:00:08.349Z,61
2022-08-24T19:15:05.149Z,62
2022-08-24T19:30:07.081Z,62
2022-08-24T19:45:04.678Z,62
2022-08-24T20:00:08.703Z,62
2022-08-24T20:15:04.312Z,63
2022-08-24T20:30:07.012Z,63
2022-08-24T20:45:02.689Z,63
2022-08-24T21:00:10.719Z,63
2022-08-24T21:15:03.426Z,64
2022-08-24T21:30:08.350Z,64
2022-08-24T21:45:06.329Z,64
2022-08-24T22:00:06.507Z,64
2022-08-24T22:15:03.764Z,65
2022-08-24T22:30:06.896Z,65
2022-08-24T22:45:03.242Z,65
2022-08-24T23:00:08.898Z,65
2022-08-24T23:15:03.090Z,65
2022-08-24T23:30:05.616Z,65
2022-08-24T23:45:03.022Z,65
